sensor_id;sensor_type;location;lat;lon;timestamp;pressure;altitude;pressure_sealevel;temperature;humidity
38466;BME280;24244;51.950;5.902;2022-08-03T00:01:23;101416.66;;;22.05;71.40
38466;BME280;24244;51.950;5.902;2022-08-03T00:03:49;101416.34;;;22.02;71.57
38466;BME280;24244;51.950;5.902;2022-08-03T00:06:14;101415.44;;;21.96;71.49
38466;BME280;24244;51.950;5.902;2022-08-03T00:08:40;101415.91;;;21.93;71.51
38466;BME280;24244;51.950;5.902;2022-08-03T00:11:06;101408.50;;;21.88;71.56
38466;BME280;24244;51.950;5.902;2022-08-03T00:13:32;101412.53;;;21.86;71.68
38466;BME280;24244;51.950;5.902;2022-08-03T00:15:58;101412.19;;;21.82;71.86
38466;BME280;24244;51.950;5.902;2022-08-03T00:18:24;101406.69;;;21.77;71.95
38466;BME280;24244;51.950;5.902;2022-08-03T00:20:49;101412.34;;;21.76;72.09
38466;BME280;24244;51.950;5.902;2022-08-03T00:23:15;101409.09;;;21.74;72.03
38466;BME280;24244;51.950;5.902;2022-08-03T00:25:41;101407.91;;;21.70;72.17
38466;BME280;24244;51.950;5.902;2022-08-03T00:28:06;101413.84;;;21.67;72.38
38466;BME280;24244;51.950;5.902;2022-08-03T00:30:34;101411.03;;;21.62;72.58
38466;BME280;24244;51.950;5.902;2022-08-03T00:33:00;101418.00;;;21.58;72.56
38466;BME280;24244;51.950;5.902;2022-08-03T00:35:26;101419.88;;;21.57;72.64
38466;BME280;24244;51.950;5.902;2022-08-03T00:37:52;101418.69;;;21.53;72.77
38466;BME280;24244;51.950;5.902;2022-08-03T00:40:18;101415.91;;;21.48;72.75
38466;BME280;24244;51.950;5.902;2022-08-03T00:42:49;101415.09;;;21.47;72.87
38466;BME280;24244;51.950;5.902;2022-08-03T00:45:16;101410.19;;;21.44;72.79
38466;BME280;24244;51.950;5.902;2022-08-03T00:47:43;101415.22;;;21.41;72.75
38466;BME280;24244;51.950;5.902;2022-08-03T00:50:09;101412.22;;;21.37;72.92
38466;BME280;24244;51.950;5.902;2022-08-03T00:52:34;101411.63;;;21.35;73.04
38466;BME280;24244;51.950;5.902;2022-08-03T00:55:00;101408.00;;;21.30;73.33
38466;BME280;24244;51.950;5.902;2022-08-03T00:57:26;101397.06;;;21.25;73.34
38466;BME280;24244;51.950;5.902;2022-08-03T00:59:54;101400.03;;;21.23;73.56
38466;BME280;24244;51.950;5.902;2022-08-03T01:02:20;101399.69;;;21.20;73.58
38466;BME280;24244;51.950;5.902;2022-08-03T01:04:47;101391.25;;;21.16;73.85
38466;BME280;24244;51.950;5.902;2022-08-03T01:07:17;101390.63;;;21.14;73.94
38466;BME280;24244;51.950;5.902;2022-08-03T01:09:49;101396.50;;;21.11;73.98
38466;BME280;24244;51.950;5.902;2022-08-03T01:12:24;101385.94;;;21.09;74.23
38466;BME280;24244;51.950;5.902;2022-08-03T01:14:58;101390.53;;;21.09;74.32
38466;BME280;24244;51.950;5.902;2022-08-03T01:17:28;101387.00;;;21.08;74.33
38466;BME280;24244;51.950;5.902;2022-08-03T01:19:59;101391.81;;;21.06;74.31
38466;BME280;24244;51.950;5.902;2022-08-03T01:22:54;101388.28;;;21.06;74.59
38466;BME280;24244;51.950;5.902;2022-08-03T01:25:30;101388.53;;;21.04;74.51
38466;BME280;24244;51.950;5.902;2022-08-03T01:30:45;101389.50;;;20.98;74.79
38466;BME280;24244;51.950;5.902;2022-08-03T01:33:14;101389.50;;;20.98;74.85
38466;BME280;24244;51.950;5.902;2022-08-03T01:35:43;101382.44;;;20.97;74.91
38466;BME280;24244;51.950;5.902;2022-08-03T01:38:14;101387.03;;;20.97;74.90
38466;BME280;24244;51.950;5.902;2022-08-03T01:40:43;101382.94;;;20.94;74.74
38466;BME280;24244;51.950;5.902;2022-08-03T01:43:14;101387.75;;;20.92;74.91
38466;BME280;24244;51.950;5.902;2022-08-03T01:45:43;101384.72;;;20.89;74.92
38466;BME280;24244;51.950;5.902;2022-08-03T01:48:10;101376.84;;;20.87;74.97
38466;BME280;24244;51.950;5.902;2022-08-03T01:50:37;101373.78;;;20.84;75.22
38466;BME280;24244;51.950;5.902;2022-08-03T01:53:05;101373.47;;;20.80;75.16
38466;BME280;24244;51.950;5.902;2022-08-03T01:55:33;101375.81;;;20.77;75.37
38466;BME280;24244;51.950;5.902;2022-08-03T01:58:02;101373.59;;;20.74;75.32
38466;BME280;24244;51.950;5.902;2022-08-03T02:00:28;101377.59;;;20.71;75.38
38466;BME280;24244;51.950;5.902;2022-08-03T02:02:57;101379.91;;;20.67;75.61
38466;BME280;24244;51.950;5.902;2022-08-03T02:05:23;101383.94;;;20.65;75.64
38466;BME280;24244;51.950;5.902;2022-08-03T02:07:51;101374.41;;;20.62;75.63
38466;BME280;24244;51.950;5.902;2022-08-03T02:10:18;101374.66;;;20.61;75.86
38466;BME280;24244;51.950;5.902;2022-08-03T02:12:46;101375.97;;;20.58;76.03
38466;BME280;24244;51.950;5.902;2022-08-03T02:15:15;101374.56;;;20.56;76.00
38466;BME280;24244;51.950;5.902;2022-08-03T02:17:41;101376.91;;;20.52;76.16
38466;BME280;24244;51.950;5.902;2022-08-03T02:20:11;101380.91;;;20.50;76.45
38466;BME280;24244;51.950;5.902;2022-08-03T02:22:39;101375.72;;;20.48;76.45
38466;BME280;24244;51.950;5.902;2022-08-03T02:25:06;101378.44;;;20.48;76.39
38466;BME280;24244;51.950;5.902;2022-08-03T02:27:33;101383.00;;;20.48;76.24
38466;BME280;24244;51.950;5.902;2022-08-03T02:30:02;101369.75;;;20.46;76.37
38466;BME280;24244;51.950;5.902;2022-08-03T02:32:33;101371.06;;;20.44;76.37
38466;BME280;24244;51.950;5.902;2022-08-03T02:35:02;101376.09;;;20.40;76.63
38466;BME280;24244;51.950;5.902;2022-08-03T02:37:33;101370.13;;;20.38;76.62
38466;BME280;24244;51.950;5.902;2022-08-03T02:40:02;101373.28;;;20.35;76.71
38466;BME280;24244;51.950;5.902;2022-08-03T02:42:30;101361.88;;;20.33;76.72
38466;BME280;24244;51.950;5.902;2022-08-03T02:44:58;101369.38;;;20.31;76.83
38466;BME280;24244;51.950;5.902;2022-08-03T02:47:27;101359.88;;;20.28;77.02
38466;BME280;24244;51.950;5.902;2022-08-03T02:49:54;101367.16;;;20.28;77.22
38466;BME280;24244;51.950;5.902;2022-08-03T02:52:22;101365.72;;;20.25;76.98
38466;BME280;24244;51.950;5.902;2022-08-03T02:54:52;101364.34;;;20.23;76.76
38466;BME280;24244;51.950;5.902;2022-08-03T02:57:19;101356.47;;;20.21;76.89
38466;BME280;24244;51.950;5.902;2022-08-03T02:59:46;101355.06;;;20.19;77.08
38466;BME280;24244;51.950;5.902;2022-08-03T03:02:12;101357.19;;;20.17;77.13
38466;BME280;24244;51.950;5.902;2022-08-03T03:04:41;101356.00;;;20.13;77.13
38466;BME280;24244;51.950;5.902;2022-08-03T03:07:07;101356.47;;;20.10;77.42
38466;BME280;24244;51.950;5.902;2022-08-03T03:09:33;101359.19;;;20.10;77.51
38466;BME280;24244;51.950;5.902;2022-08-03T03:12:01;101362.94;;;20.09;77.58
38466;BME280;24244;51.950;5.902;2022-08-03T03:14:27;101360.47;;;20.07;77.47
38466;BME280;24244;51.950;5.902;2022-08-03T03:16:54;101353.41;;;20.06;77.73
38466;BME280;24244;51.950;5.902;2022-08-03T03:19:20;101359.03;;;20.05;77.71
38466;BME280;24244;51.950;5.902;2022-08-03T03:21:47;101359.28;;;20.03;77.56
38466;BME280;24244;51.950;5.902;2022-08-03T03:24:14;101355.19;;;20.01;77.52
38466;BME280;24244;51.950;5.902;2022-08-03T03:26:41;101349.19;;;19.99;77.85
38466;BME280;24244;51.950;5.902;2022-08-03T03:29:08;101351.28;;;19.97;77.72
38466;BME280;24244;51.950;5.902;2022-08-03T03:31:34;101344.50;;;19.94;77.82
38466;BME280;24244;51.950;5.902;2022-08-03T03:34:00;101338.72;;;19.90;77.83
38466;BME280;24244;51.950;5.902;2022-08-03T03:36:26;101340.88;;;19.88;77.80
38466;BME280;24244;51.950;5.902;2022-08-03T03:38:52;101340.25;;;19.86;77.97
38466;BME280;24244;51.950;5.902;2022-08-03T03:41:17;101340.72;;;19.83;78.05
38466;BME280;24244;51.950;5.902;2022-08-03T03:43:43;101339.06;;;19.82;78.05
38466;BME280;24244;51.950;5.902;2022-08-03T03:46:12;101345.53;;;19.81;78.21
38466;BME280;24244;51.950;5.902;2022-08-03T03:48:38;101349.28;;;19.80;78.17
38466;BME280;24244;51.950;5.902;2022-08-03T03:51:04;101353.03;;;19.79;78.33
38466;BME280;24244;51.950;5.902;2022-08-03T03:53:30;101352.44;;;19.77;78.34
38466;BME280;24244;51.950;5.902;2022-08-03T03:55:55;101346.22;;;19.77;78.34
38466;BME280;24244;51.950;5.902;2022-08-03T03:58:21;101347.53;;;19.74;78.43
38466;BME280;24244;51.950;5.902;2022-08-03T04:00:47;101355.84;;;19.73;78.62
38466;BME280;24244;51.950;5.902;2022-08-03T04:03:15;101357.94;;;19.71;78.44
38466;BME280;24244;51.950;5.902;2022-08-03T04:05:41;101348.22;;;19.70;78.56
38466;BME280;24244;51.950;5.902;2022-08-03T04:08:25;101354.91;;;19.67;78.58
38466;BME280;24244;51.950;5.902;2022-08-03T04:11:13;101354.31;;;19.65;78.53
38466;BME280;24244;51.950;5.902;2022-08-03T04:13:42;101354.75;;;19.62;78.72
38466;BME280;24244;51.950;5.902;2022-08-03T04:16:09;101354.19;;;19.60;78.62
38466;BME280;24244;51.950;5.902;2022-08-03T04:18:39;101353.09;;;19.61;78.44
38466;BME280;24244;51.950;5.902;2022-08-03T04:21:08;101357.72;;;19.61;78.67
38466;BME280;24244;51.950;5.902;2022-08-03T04:23:34;101356.88;;;19.60;78.72
38466;BME280;24244;51.950;5.902;2022-08-03T04:26:02;101354.19;;;19.60;78.66
38466;BME280;24244;51.950;5.902;2022-08-03T04:28:30;101361.19;;;19.61;78.58
38466;BME280;24244;51.950;5.902;2022-08-03T04:30:57;101360.41;;;19.61;78.92
38466;BME280;24244;51.950;5.902;2022-08-03T04:33:25;101357.44;;;19.62;78.96
38466;BME280;24244;51.950;5.902;2022-08-03T04:35:54;101354.75;;;19.62;79.15
38466;BME280;24244;51.950;5.902;2022-08-03T04:38:23;101358.88;;;19.65;79.08
38466;BME280;24244;51.950;5.902;2022-08-03T04:40:51;101354.31;;;19.65;79.16
38466;BME280;24244;51.950;5.902;2022-08-03T04:43:17;101361.91;;;19.68;79.32
38466;BME280;24244;51.950;5.902;2022-08-03T04:45:45;101353.59;;;19.70;79.43
38466;BME280;24244;51.950;5.902;2022-08-03T04:48:12;101363.13;;;19.72;79.55
38466;BME280;24244;51.950;5.902;2022-08-03T04:50:39;101366.41;;;19.74;79.65
38466;BME280;24244;51.950;5.902;2022-08-03T04:53:06;101358.88;;;19.76;79.77
38466;BME280;24244;51.950;5.902;2022-08-03T04:55:33;101368.19;;;19.80;79.94
38466;BME280;24244;51.950;5.902;2022-08-03T04:58:00;101367.69;;;19.83;80.00
38466;BME280;24244;51.950;5.902;2022-08-03T05:00:26;101375.13;;;19.88;79.71
38466;BME280;24244;51.950;5.902;2022-08-03T05:02:52;101376.06;;;19.93;79.59
38466;BME280;24244;51.950;5.902;2022-08-03T05:05:18;101378.88;;;19.99;79.45
38466;BME280;24244;51.950;5.902;2022-08-03T05:07:44;101375.50;;;20.03;79.30
38466;BME280;24244;51.950;5.902;2022-08-03T05:10:12;101371.84;;;20.09;79.54
38466;BME280;24244;51.950;5.902;2022-08-03T05:12:37;101375.72;;;20.13;79.43
38466;BME280;24244;51.950;5.902;2022-08-03T05:15:04;101375.81;;;20.18;79.39
38466;BME280;24244;51.950;5.902;2022-08-03T05:17:30;101379.47;;;20.24;79.33
38466;BME280;24244;51.950;5.902;2022-08-03T05:19:58;101377.13;;;20.27;79.24
38466;BME280;24244;51.950;5.902;2022-08-03T05:22:24;101380.19;;;20.31;79.38
38466;BME280;24244;51.950;5.902;2022-08-03T05:24:49;101382.22;;;20.36;79.05
38466;BME280;24244;51.950;5.902;2022-08-03T05:27:16;101385.25;;;20.39;78.97
38466;BME280;24244;51.950;5.902;2022-08-03T05:29:43;101384.56;;;20.44;78.75
38466;BME280;24244;51.950;5.902;2022-08-03T05:32:09;101385.94;;;20.46;78.54
38466;BME280;24244;51.950;5.902;2022-08-03T05:34:34;101386.06;;;20.51;78.19
38466;BME280;24244;51.950;5.902;2022-08-03T05:37:00;101380.19;;;20.54;78.42
38466;BME280;24244;51.950;5.902;2022-08-03T05:39:26;101389.47;;;20.58;78.16
38466;BME280;24244;51.950;5.902;2022-08-03T05:41:52;101384.16;;;20.63;78.30
38466;BME280;24244;51.950;5.902;2022-08-03T05:44:19;101387.47;;;20.65;78.07
38466;BME280;24244;51.950;5.902;2022-08-03T05:46:45;101393.19;;;20.69;77.98
38466;BME280;24244;51.950;5.902;2022-08-03T05:49:11;101390.28;;;20.70;78.05
38466;BME280;24244;51.950;5.902;2022-08-03T05:51:36;101391.44;;;20.75;77.96
38466;BME280;24244;51.950;5.902;2022-08-03T05:54:02;101387.44;;;20.77;78.15
38466;BME280;24244;51.950;5.902;2022-08-03T05:56:28;101391.56;;;20.80;77.91
38466;BME280;24244;51.950;5.902;2022-08-03T05:58:53;101391.06;;;20.83;77.82
38466;BME280;24244;51.950;5.902;2022-08-03T06:01:20;101392.25;;;20.87;77.92
38466;BME280;24244;51.950;5.902;2022-08-03T06:03:46;101389.31;;;20.88;77.74
38466;BME280;24244;51.950;5.902;2022-08-03T06:06:12;101393.16;;;20.92;77.61
38466;BME280;24244;51.950;5.902;2022-08-03T06:08:38;101386.47;;;20.95;77.51
38466;BME280;24244;51.950;5.902;2022-08-03T06:11:04;101398.44;;;20.99;77.30
38466;BME280;24244;51.950;5.902;2022-08-03T06:13:30;101395.25;;;21.02;77.16
38466;BME280;24244;51.950;5.902;2022-08-03T06:15:56;101396.41;;;21.06;76.97
38466;BME280;24244;51.950;5.902;2022-08-03T06:18:23;101391.34;;;21.09;77.08
38466;BME280;24244;51.950;5.902;2022-08-03T06:20:48;101399.78;;;21.13;76.94
38466;BME280;24244;51.950;5.902;2022-08-03T06:23:15;101398.31;;;21.17;76.72
38466;BME280;24244;51.950;5.902;2022-08-03T06:25:42;101398.63;;;21.21;76.73
38466;BME280;24244;51.950;5.902;2022-08-03T06:28:08;101402.47;;;21.25;76.29
38466;BME280;24244;51.950;5.902;2022-08-03T06:30:33;101400.13;;;21.28;76.23
38466;BME280;24244;51.950;5.902;2022-08-03T06:32:59;101403.97;;;21.32;76.26
38466;BME280;24244;51.950;5.902;2022-08-03T06:35:26;101411.38;;;21.37;75.86
38466;BME280;24244;51.950;5.902;2022-08-03T06:37:53;101407.34;;;21.39;75.97
38466;BME280;24244;51.950;5.902;2022-08-03T06:40:20;101411.47;;;21.42;75.74
38466;BME280;24244;51.950;5.902;2022-08-03T06:42:53;101413.44;;;21.46;75.60
38466;BME280;24244;51.950;5.902;2022-08-03T06:45:19;101414.84;;;21.49;75.38
38466;BME280;24244;51.950;5.902;2022-08-03T06:47:44;101419.53;;;21.54;75.20
38466;BME280;24244;51.950;5.902;2022-08-03T06:50:10;101409.88;;;21.58;75.07
38466;BME280;24244;51.950;5.902;2022-08-03T06:52:37;101415.38;;;21.63;74.96
38466;BME280;24244;51.950;5.902;2022-08-03T06:55:03;101411.13;;;21.67;74.72
38466;BME280;24244;51.950;5.902;2022-08-03T06:57:29;101413.09;;;21.71;74.68
38466;BME280;24244;51.950;5.902;2022-08-03T06:59:54;101407.19;;;21.74;74.44
38466;BME280;24244;51.950;5.902;2022-08-03T07:02:25;101402.94;;;21.78;74.13
38466;BME280;24244;51.950;5.902;2022-08-03T07:04:51;101414.91;;;21.82;74.07
38466;BME280;24244;51.950;5.902;2022-08-03T07:07:16;101409.84;;;21.86;73.81
38466;BME280;24244;51.950;5.902;2022-08-03T07:09:45;101414.50;;;21.91;73.62
38466;BME280;24244;51.950;5.902;2022-08-03T07:12:10;101407.78;;;21.93;73.33
38466;BME280;24244;51.950;5.902;2022-08-03T07:14:36;101406.00;;;21.99;73.24
38466;BME280;24244;51.950;5.902;2022-08-03T07:17:01;101404.44;;;22.03;72.95
38466;BME280;24244;51.950;5.902;2022-08-03T07:19:27;101412.06;;;22.06;72.64
38466;BME280;24244;51.950;5.902;2022-08-03T07:21:52;101412.44;;;22.09;72.69
38466;BME280;24244;51.950;5.902;2022-08-03T07:24:18;101412.50;;;22.14;72.29
38466;BME280;24244;51.950;5.902;2022-08-03T07:26:45;101410.38;;;22.16;72.27
38466;BME280;24244;51.950;5.902;2022-08-03T07:29:10;101420.44;;;22.21;71.96
38466;BME280;24244;51.950;5.902;2022-08-03T07:31:36;101422.41;;;22.25;71.98
38466;BME280;24244;51.950;5.902;2022-08-03T07:34:02;101412.16;;;22.27;71.79
38466;BME280;24244;51.950;5.902;2022-08-03T07:36:28;101414.94;;;22.33;71.62
38466;BME280;24244;51.950;5.902;2022-08-03T07:38:53;101420.44;;;22.38;71.58
38466;BME280;24244;51.950;5.902;2022-08-03T07:41:19;101420.75;;;22.41;71.43
38466;BME280;24244;51.950;5.902;2022-08-03T07:43:46;101411.88;;;22.46;71.31
38466;BME280;24244;51.950;5.902;2022-08-03T07:46:11;101412.22;;;22.49;71.39
38466;BME280;24244;51.950;5.902;2022-08-03T07:48:37;101415.81;;;22.55;71.05
38466;BME280;24244;51.950;5.902;2022-08-03T07:51:02;101416.97;;;22.59;70.90
38466;BME280;24244;51.950;5.902;2022-08-03T07:53:29;101420.81;;;22.63;70.56
38466;BME280;24244;51.950;5.902;2022-08-03T07:55:55;101417.59;;;22.66;70.40
38466;BME280;24244;51.950;5.902;2022-08-03T07:58:21;101423.31;;;22.70;70.28
38466;BME280;24244;51.950;5.902;2022-08-03T08:00:49;101419.06;;;22.74;70.02
38466;BME280;24244;51.950;5.902;2022-08-03T08:03:17;101420.22;;;22.78;69.86
38466;BME280;24244;51.950;5.902;2022-08-03T08:05:43;101420.53;;;22.81;69.77
38466;BME280;24244;51.950;5.902;2022-08-03T08:08:08;101422.75;;;22.84;69.44
38466;BME280;24244;51.950;5.902;2022-08-03T08:10:34;101426.59;;;22.88;69.27
38466;BME280;24244;51.950;5.902;2022-08-03T08:13:01;101429.63;;;22.92;69.08
38466;BME280;24244;51.950;5.902;2022-08-03T08:15:26;101424.50;;;22.95;68.93
38466;BME280;24244;51.950;5.902;2022-08-03T08:17:55;101413.97;;;22.99;68.88
38466;BME280;24244;51.950;5.902;2022-08-03T08:20:22;101417.00;;;23.02;68.50
38466;BME280;24244;51.950;5.902;2022-08-03T08:22:48;101416.50;;;23.06;68.51
38466;BME280;24244;51.950;5.902;2022-08-03T08:25:14;101421.16;;;23.10;68.44
38466;BME280;24244;51.950;5.902;2022-08-03T08:27:44;101421.25;;;23.15;68.27
38466;BME280;24244;51.950;5.902;2022-08-03T08:30:11;101423.19;;;23.20;67.90
38466;BME280;24244;51.950;5.902;2022-08-03T08:32:37;101427.59;;;23.26;67.58
38466;BME280;24244;51.950;5.902;2022-08-03T08:35:05;101423.31;;;23.30;67.24
38466;BME280;24244;51.950;5.902;2022-08-03T08:37:31;101423.66;;;23.38;66.87
38466;BME280;24244;51.950;5.902;2022-08-03T08:39:57;101420.28;;;23.48;66.83
38466;BME280;24244;51.950;5.902;2022-08-03T08:42:24;101418.22;;;23.60;66.38
38466;BME280;24244;51.950;5.902;2022-08-03T08:44:49;101415.66;;;23.75;66.13
38466;BME280;24244;51.950;5.902;2022-08-03T08:47:16;101410.88;;;23.88;65.89
38466;BME280;24244;51.950;5.902;2022-08-03T08:49:43;101418.00;;;23.94;65.71
38466;BME280;24244;51.950;5.902;2022-08-03T08:52:12;101417.78;;;24.00;65.26
38466;BME280;24244;51.950;5.902;2022-08-03T08:54:40;101421.13;;;24.12;65.11
38466;BME280;24244;51.950;5.902;2022-08-03T08:57:06;101421.66;;;24.46;63.92
38466;BME280;24244;51.950;5.902;2022-08-03T08:59:33;101421.72;;;25.09;61.69
38466;BME280;24244;51.950;5.902;2022-08-03T09:01:59;101422.28;;;25.16;61.42
38466;BME280;24244;51.950;5.902;2022-08-03T09:04:27;101421.44;;;25.00;61.82
38466;BME280;24244;51.950;5.902;2022-08-03T09:06:53;101419.72;;;24.89;62.29
38466;BME280;24244;51.950;5.902;2022-08-03T09:09:20;101416.41;;;24.82;62.33
38466;BME280;24244;51.950;5.902;2022-08-03T09:11:47;101417.22;;;24.77;62.32
38466;BME280;24244;51.950;5.902;2022-08-03T09:14:13;101410.16;;;24.76;62.36
38466;BME280;24244;51.950;5.902;2022-08-03T09:16:54;101420.50;;;24.79;62.18
38466;BME280;24244;51.950;5.902;2022-08-03T09:19:20;101418.06;;;24.83;62.22
38466;BME280;24244;51.950;5.902;2022-08-03T09:21:46;101421.88;;;24.87;61.97
38466;BME280;24244;51.950;5.902;2022-08-03T09:24:32;101417.59;;;24.91;61.94
38466;BME280;24244;51.950;5.902;2022-08-03T09:26:58;101418.41;;;24.96;61.19
38466;BME280;24244;51.950;5.902;2022-08-03T09:29:24;101415.72;;;25.02;61.21
38466;BME280;24244;51.950;5.902;2022-08-03T09:31:59;101416.56;;;25.07;60.79
38466;BME280;24244;51.950;5.902;2022-08-03T09:34:25;101417.66;;;25.11;60.68
38466;BME280;24244;51.950;5.902;2022-08-03T09:36:53;101406.78;;;25.16;60.46
38466;BME280;24244;51.950;5.902;2022-08-03T09:39:20;101417.41;;;25.23;60.20
38466;BME280;24244;51.950;5.902;2022-08-03T09:42:03;101407.38;;;25.28;60.04
38466;BME280;24244;51.950;5.902;2022-08-03T09:44:33;101416.38;;;25.34;59.90
38466;BME280;24244;51.950;5.902;2022-08-03T09:46:58;101418.28;;;25.39;59.79
38466;BME280;24244;51.950;5.902;2022-08-03T09:49:24;101417.50;;;25.43;59.67
38466;BME280;24244;51.950;5.902;2022-08-03T09:51:50;101415.59;;;25.49;59.57
38466;BME280;24244;51.950;5.902;2022-08-03T09:54:25;101425.41;;;25.55;59.21
38466;BME280;24244;51.950;5.902;2022-08-03T09:56:52;101411.81;;;25.60;58.90
38466;BME280;24244;51.950;5.902;2022-08-03T09:59:23;101414.53;;;25.65;58.77
38466;BME280;24244;51.950;5.902;2022-08-03T10:01:48;101421.91;;;25.69;58.43
38466;BME280;24244;51.950;5.902;2022-08-03T10:04:15;101415.38;;;25.76;58.31
38466;BME280;24244;51.950;5.902;2022-08-03T10:06:42;101413.47;;;25.81;58.36
38466;BME280;24244;51.950;5.902;2022-08-03T10:09:09;101412.94;;;25.89;58.18
38466;BME280;24244;51.950;5.902;2022-08-03T10:11:35;101411.56;;;25.97;57.92
38466;BME280;24244;51.950;5.902;2022-08-03T10:14:05;101411.84;;;26.05;57.59
38466;BME280;24244;51.950;5.902;2022-08-03T10:16:33;101414.31;;;26.12;57.39
38466;BME280;24244;51.950;5.902;2022-08-03T10:18:59;101412.94;;;26.20;57.08
38466;BME280;24244;51.950;5.902;2022-08-03T10:21:25;101413.50;;;26.27;56.51
38466;BME280;24244;51.950;5.902;2022-08-03T10:23:55;101405.03;;;26.33;56.24
38466;BME280;24244;51.950;5.902;2022-08-03T10:26:23;101401.22;;;26.39;56.44
38466;BME280;24244;51.950;5.902;2022-08-03T10:28:52;101400.91;;;26.46;56.20
38466;BME280;24244;51.950;5.902;2022-08-03T10:31:21;101399.81;;;26.52;56.20
38466;BME280;24244;51.950;5.902;2022-08-03T10:33:49;101392.16;;;26.59;56.29
38466;BME280;24244;51.950;5.902;2022-08-03T10:36:16;101399.50;;;26.69;55.59
38466;BME280;24244;51.950;5.902;2022-08-03T10:38:44;101401.66;;;26.77;55.58
38466;BME280;24244;51.950;5.902;2022-08-03T10:41:12;101396.97;;;26.82;55.58
38466;BME280;24244;51.950;5.902;2022-08-03T10:43:44;101387.44;;;26.90;55.70
38466;BME280;24244;51.950;5.902;2022-08-03T10:46:14;101399.41;;;26.99;55.64
38466;BME280;24244;51.950;5.902;2022-08-03T10:48:43;101382.72;;;27.06;55.32
38466;BME280;24244;51.950;5.902;2022-08-03T10:51:09;101388.69;;;27.13;54.96
38466;BME280;24244;51.950;5.902;2022-08-03T10:53:36;101385.94;;;27.18;54.45
38466;BME280;24244;51.950;5.902;2022-08-03T10:56:02;101384.53;;;27.25;54.34
38466;BME280;24244;51.950;5.902;2022-08-03T10:58:48;101378.47;;;27.34;54.20
38466;BME280;24244;51.950;5.902;2022-08-03T11:01:15;101374.31;;;27.41;53.96
38466;BME280;24244;51.950;5.902;2022-08-03T11:04:16;101375.34;;;27.50;53.93
38466;BME280;24244;51.950;5.902;2022-08-03T11:06:43;101362.19;;;27.57;54.06
38466;BME280;24244;51.950;5.902;2022-08-03T11:09:18;101365.41;;;27.64;53.21
38466;BME280;24244;51.950;5.902;2022-08-03T11:11:46;101363.19;;;27.72;53.13
38466;BME280;24244;51.950;5.902;2022-08-03T11:14:13;101361.75;;;27.79;52.21
38466;BME280;24244;51.950;5.902;2022-08-03T11:16:40;101370.44;;;27.86;51.69
38466;BME280;24244;51.950;5.902;2022-08-03T11:19:07;101359.16;;;27.93;51.37
38466;BME280;24244;51.950;5.902;2022-08-03T11:21:54;101355.31;;;27.99;51.24
38466;BME280;24244;51.950;5.902;2022-08-03T11:27:24;101350.25;;;28.11;50.72
38466;BME280;24244;51.950;5.902;2022-08-03T11:29:54;101350.22;;;28.16;51.21
38466;BME280;24244;51.950;5.902;2022-08-03T11:32:52;101350.97;;;28.22;50.98
38466;BME280;24244;51.950;5.902;2022-08-03T11:35:19;101356.09;;;28.28;50.83
38466;BME280;24244;51.950;5.902;2022-08-03T11:38:07;101362.03;;;28.35;49.60
38466;BME280;24244;51.950;5.902;2022-08-03T11:40:35;101358.75;;;28.38;49.65
38466;BME280;24244;51.950;5.902;2022-08-03T11:43:01;101355.13;;;28.43;49.19
38466;BME280;24244;51.950;5.902;2022-08-03T11:45:27;101364.13;;;28.49;48.68
38466;BME280;24244;51.950;5.902;2022-08-03T11:47:54;101364.88;;;28.54;48.74
38466;BME280;24244;51.950;5.902;2022-08-03T11:50:21;101360.94;;;28.60;48.16
38466;BME280;24244;51.950;5.902;2022-08-03T11:52:47;101366.34;;;28.65;48.29
38466;BME280;24244;51.950;5.902;2022-08-03T11:55:17;101369.06;;;28.70;47.99
38466;BME280;24244;51.950;5.902;2022-08-03T11:57:45;101364.34;;;28.76;48.20
38466;BME280;24244;51.950;5.902;2022-08-03T12:00:28;101371.09;;;28.84;47.96
38466;BME280;24244;51.950;5.902;2022-08-03T12:02:56;101368.00;;;28.90;47.91
38466;BME280;24244;51.950;5.902;2022-08-03T12:05:32;101372.50;;;29.00;46.66
38466;BME280;24244;51.950;5.902;2022-08-03T12:07:58;101371.34;;;29.06;47.19
38466;BME280;24244;51.950;5.902;2022-08-03T12:10:25;101378.66;;;29.10;46.39
38466;BME280;24244;51.950;5.902;2022-08-03T12:12:54;101370.38;;;29.15;46.40
38466;BME280;24244;51.950;5.902;2022-08-03T12:15:24;101371.94;;;29.21;46.11
38466;BME280;24244;51.950;5.902;2022-08-03T12:17:50;101358.69;;;29.29;45.66
38466;BME280;24244;51.950;5.902;2022-08-03T12:20:20;101363.53;;;29.37;45.51
38466;BME280;24244;51.950;5.902;2022-08-03T12:22:46;101366.69;;;29.44;45.97
38466;BME280;24244;51.950;5.902;2022-08-03T12:25:20;101367.94;;;29.51;45.26
38466;BME280;24244;51.950;5.902;2022-08-03T12:27:48;101364.81;;;29.58;46.00
38466;BME280;24244;51.950;5.902;2022-08-03T12:30:13;101350.75;;;29.65;45.19
38466;BME280;24244;51.950;5.902;2022-08-03T12:32:42;101352.28;;;29.71;44.75
38466;BME280;24244;51.950;5.902;2022-08-03T12:35:09;101354.63;;;29.77;44.62
38466;BME280;24244;51.950;5.902;2022-08-03T12:37:34;101351.53;;;29.84;44.39
38466;BME280;24244;51.950;5.902;2022-08-03T12:40:00;101341.50;;;29.93;44.59
38466;BME280;24244;51.950;5.902;2022-08-03T12:42:29;101346.59;;;30.00;44.14
38466;BME280;24244;51.950;5.902;2022-08-03T12:44:56;101350.28;;;30.09;44.45
38466;BME280;24244;51.950;5.902;2022-08-03T12:47:22;101355.59;;;30.19;44.18
38466;BME280;24244;51.950;5.902;2022-08-03T12:49:48;101354.06;;;30.26;44.32
38466;BME280;24244;51.950;5.902;2022-08-03T12:52:15;101354.97;;;30.35;43.80
38466;BME280;24244;51.950;5.902;2022-08-03T12:54:41;101356.00;;;30.40;43.50
38466;BME280;24244;51.950;5.902;2022-08-03T12:57:10;101360.88;;;30.43;43.42
38466;BME280;24244;51.950;5.902;2022-08-03T12:59:38;101360.28;;;30.46;43.38